sensor_id;sensor_type;location;lat;lon;timestamp;P1;durP1;ratioP1;P2;durP2;ratioP2
59458;SDS011;45269;43.568;22.244;2023-06-24T00:00:23;15.38;;;13.60;;
59458;SDS011;45269;43.568;22.244;2023-06-24T00:02:48;15.45;;;13.95;;
59458;SDS011;45269;43.568;22.244;2023-06-24T00:05:16;14.90;;;13.40;;
59458;SDS011;45269;43.568;22.244;2023-06-24T00:07:41;19.67;;;14.20;;
59458;SDS011;45269;43.568;22.244;2023-06-24T00:10:10;17.45;;;14.50;;
59458;SDS011;45269;43.568;22.244;2023-06-24T00:12:37;14.93;;;13.57;;
59458;SDS011;45269;43.568;22.244;2023-06-24T00:15:05;15.02;;;13.52;;
59458;SDS011;45269;43.568;22.244;2023-06-24T00:17:30;15.43;;;13.38;;
59458;SDS011;45269;43.568;22.244;2023-06-24T00:19:56;16.63;;;15.02;;
59458;SDS011;45269;43.568;22.244;2023-06-24T00:22:21;16.17;;;14.65;;
59458;SDS011;45269;43.568;22.244;2023-06-24T00:24:47;16.23;;;14.63;;
59458;SDS011;45269;43.568;22.244;2023-06-24T00:27:12;17.27;;;15.50;;
59458;SDS011;45269;43.568;22.244;2023-06-24T00:29:38;15.27;;;13.65;;
59458;SDS011;45269;43.568;22.244;2023-06-24T00:32:03;14.77;;;13.27;;
59458;SDS011;45269;43.568;22.244;2023-06-24T00:34:29;16.05;;;14.38;;
59458;SDS011;45269;43.568;22.244;2023-06-24T00:36:54;15.73;;;14.13;;
59458;SDS011;45269;43.568;22.244;2023-06-24T00:39:20;15.57;;;14.27;;
59458;SDS011;45269;43.568;22.244;2023-06-24T00:41:45;14.85;;;13.45;;
59458;SDS011;45269;43.568;22.244;2023-06-24T00:44:11;15.60;;;13.88;;
59458;SDS011;45269;43.568;22.244;2023-06-24T00:46:37;16.73;;;13.15;;
59458;SDS011;45269;43.568;22.244;2023-06-24T00:49:02;14.35;;;12.85;;
59458;SDS011;45269;43.568;22.244;2023-06-24T00:51:28;15.90;;;14.25;;
59458;SDS011;45269;43.568;22.244;2023-06-24T00:53:58;14.68;;;13.18;;
59458;SDS011;45269;43.568;22.244;2023-06-24T00:56:31;14.30;;;12.87;;
59458;SDS011;45269;43.568;22.244;2023-06-24T00:59:00;15.05;;;13.07;;
59458;SDS011;45269;43.568;22.244;2023-06-24T01:01:28;14.70;;;13.23;;
59458;SDS011;45269;43.568;22.244;2023-06-24T01:03:53;14.77;;;13.18;;
59458;SDS011;45269;43.568;22.244;2023-06-24T01:06:18;15.63;;;13.32;;
59458;SDS011;45269;43.568;22.244;2023-06-24T01:08:44;13.60;;;12.20;;
59458;SDS011;45269;43.568;22.244;2023-06-24T01:11:15;13.80;;;12.10;;
59458;SDS011;45269;43.568;22.244;2023-06-24T01:13:41;14.05;;;12.35;;
59458;SDS011;45269;43.568;22.244;2023-06-24T01:16:07;15.07;;;13.30;;
59458;SDS011;45269;43.568;22.244;2023-06-24T01:18:39;16.40;;;13.68;;
59458;SDS011;45269;43.568;22.244;2023-06-24T01:26:19;14.38;;;12.88;;
59458;SDS011;45269;43.568;22.244;2023-06-24T01:36:17;14.77;;;13.30;;
59458;SDS011;45269;43.568;22.244;2023-06-24T01:38:46;15.38;;;13.77;;
59458;SDS011;45269;43.568;22.244;2023-06-24T01:41:13;16.40;;;14.68;;
59458;SDS011;45269;43.568;22.244;2023-06-24T01:43:40;22.65;;;14.00;;
59458;SDS011;45269;43.568;22.244;2023-06-24T01:46:07;19.80;;;13.77;;
59458;SDS011;45269;43.568;22.244;2023-06-24T01:48:34;15.75;;;13.27;;
59458;SDS011;45269;43.568;22.244;2023-06-24T01:53:29;16.33;;;14.27;;
59458;SDS011;45269;43.568;22.244;2023-06-24T01:55:57;14.75;;;13.20;;
59458;SDS011;45269;43.568;22.244;2023-06-24T01:58:24;14.98;;;13.45;;
59458;SDS011;45269;43.568;22.244;2023-06-24T02:00:50;20.40;;;14.77;;
59458;SDS011;45269;43.568;22.244;2023-06-24T02:03:15;15.82;;;13.82;;
59458;SDS011;45269;43.568;22.244;2023-06-24T02:05:41;15.73;;;14.18;;
59458;SDS011;45269;43.568;22.244;2023-06-24T02:08:10;15.73;;;14.07;;
59458;SDS011;45269;43.568;22.244;2023-06-24T02:10:37;16.80;;;13.75;;
59458;SDS011;45269;43.568;22.244;2023-06-24T02:13:03;16.20;;;14.50;;
59458;SDS011;45269;43.568;22.244;2023-06-24T02:15:29;16.10;;;14.48;;
59458;SDS011;45269;43.568;22.244;2023-06-24T02:17:55;15.75;;;14.30;;
59458;SDS011;45269;43.568;22.244;2023-06-24T02:20:21;18.13;;;14.43;;
59458;SDS011;45269;43.568;22.244;2023-06-24T02:22:52;19.23;;;14.90;;
59458;SDS011;45269;43.568;22.244;2023-06-24T02:25:18;15.75;;;14.07;;
59458;SDS011;45269;43.568;22.244;2023-06-24T02:27:43;16.02;;;14.48;;
59458;SDS011;45269;43.568;22.244;2023-06-24T02:30:09;15.73;;;14.02;;
59458;SDS011;45269;43.568;22.244;2023-06-24T02:32:34;17.27;;;15.38;;
59458;SDS011;45269;43.568;22.244;2023-06-24T02:35:03;16.17;;;14.70;;
59458;SDS011;45269;43.568;22.244;2023-06-24T02:37:28;17.63;;;14.45;;
59458;SDS011;45269;43.568;22.244;2023-06-24T02:39:54;15.95;;;13.77;;
59458;SDS011;45269;43.568;22.244;2023-06-24T02:42:20;15.68;;;14.10;;
59458;SDS011;45269;43.568;22.244;2023-06-24T02:44:45;15.65;;;14.15;;
59458;SDS011;45269;43.568;22.244;2023-06-24T02:47:11;19.02;;;13.88;;
59458;SDS011;45269;43.568;22.244;2023-06-24T02:49:37;15.25;;;13.60;;
59458;SDS011;45269;43.568;22.244;2023-06-24T02:52:04;16.23;;;14.05;;
59458;SDS011;45269;43.568;22.244;2023-06-24T02:54:30;16.30;;;14.35;;
59458;SDS011;45269;43.568;22.244;2023-06-24T02:56:55;18.63;;;13.55;;
59458;SDS011;45269;43.568;22.244;2023-06-24T02:59:23;16.80;;;13.73;;
59458;SDS011;45269;43.568;22.244;2023-06-24T03:01:49;17.50;;;14.48;;
59458;SDS011;45269;43.568;22.244;2023-06-24T03:04:15;16.13;;;14.50;;
59458;SDS011;45269;43.568;22.244;2023-06-24T03:06:40;16.42;;;14.88;;
59458;SDS011;45269;43.568;22.244;2023-06-24T03:09:06;20.33;;;15.60;;
59458;SDS011;45269;43.568;22.244;2023-06-24T03:11:39;18.38;;;15.38;;
59458;SDS011;45269;43.568;22.244;2023-06-24T03:14:04;17.10;;;15.50;;
59458;SDS011;45269;43.568;22.244;2023-06-24T03:16:30;15.63;;;14.05;;
59458;SDS011;45269;43.568;22.244;2023-06-24T03:18:56;16.52;;;14.75;;
59458;SDS011;45269;43.568;22.244;2023-06-24T03:21:21;16.15;;;14.48;;
59458;SDS011;45269;43.568;22.244;2023-06-24T03:23:46;20.25;;;14.70;;
59458;SDS011;45269;43.568;22.244;2023-06-24T03:26:12;17.00;;;14.48;;
59458;SDS011;45269;43.568;22.244;2023-06-24T03:28:37;19.65;;;14.20;;
59458;SDS011;45269;43.568;22.244;2023-06-24T03:31:03;17.80;;;12.90;;
59458;SDS011;45269;43.568;22.244;2023-06-24T03:33:28;17.58;;;14.45;;
59458;SDS011;45269;43.568;22.244;2023-06-24T03:35:54;17.02;;;13.43;;
59458;SDS011;45269;43.568;22.244;2023-06-24T03:38:22;15.52;;;13.90;;
59458;SDS011;45269;43.568;22.244;2023-06-24T03:40:47;18.52;;;14.30;;
59458;SDS011;45269;43.568;22.244;2023-06-24T03:43:12;14.73;;;13.30;;
59458;SDS011;45269;43.568;22.244;2023-06-24T03:45:38;15.25;;;13.73;;
59458;SDS011;45269;43.568;22.244;2023-06-24T03:48:03;15.65;;;14.05;;
59458;SDS011;45269;43.568;22.244;2023-06-24T03:50:29;18.05;;;14.35;;
59458;SDS011;45269;43.568;22.244;2023-06-24T03:52:54;17.15;;;14.85;;
59458;SDS011;45269;43.568;22.244;2023-06-24T03:55:19;15.55;;;14.00;;
59458;SDS011;45269;43.568;22.244;2023-06-24T03:57:45;16.77;;;14.52;;
59458;SDS011;45269;43.568;22.244;2023-06-24T04:00:10;16.58;;;14.93;;
59458;SDS011;45269;43.568;22.244;2023-06-24T04:02:40;15.43;;;13.98;;
59458;SDS011;45269;43.568;22.244;2023-06-24T04:05:07;15.18;;;13.63;;
59458;SDS011;45269;43.568;22.244;2023-06-24T04:07:32;16.08;;;14.55;;
59458;SDS011;45269;43.568;22.244;2023-06-24T04:09:57;26.10;;;16.98;;
59458;SDS011;45269;43.568;22.244;2023-06-24T04:12:23;21.23;;;15.85;;
59458;SDS011;45269;43.568;22.244;2023-06-24T04:14:49;16.48;;;14.73;;
59458;SDS011;45269;43.568;22.244;2023-06-24T04:17:14;17.98;;;14.52;;
59458;SDS011;45269;43.568;22.244;2023-06-24T04:19:39;15.55;;;13.95;;
59458;SDS011;45269;43.568;22.244;2023-06-24T04:22:05;16.55;;;13.80;;
59458;SDS011;45269;43.568;22.244;2023-06-24T04:24:31;16.40;;;13.90;;
59458;SDS011;45269;43.568;22.244;2023-06-24T04:26:57;16.65;;;14.10;;
59458;SDS011;45269;43.568;22.244;2023-06-24T04:29:22;15.20;;;13.63;;
59458;SDS011;45269;43.568;22.244;2023-06-24T04:31:48;17.38;;;14.18;;
59458;SDS011;45269;43.568;22.244;2023-06-24T04:34:13;16.05;;;13.88;;
59458;SDS011;45269;43.568;22.244;2023-06-24T04:36:38;16.10;;;12.82;;
59458;SDS011;45269;43.568;22.244;2023-06-24T04:39:04;17.15;;;12.85;;
59458;SDS011;45269;43.568;22.244;2023-06-24T04:41:29;16.65;;;13.50;;
59458;SDS011;45269;43.568;22.244;2023-06-24T04:43:54;15.52;;;13.35;;
59458;SDS011;45269;43.568;22.244;2023-06-24T04:46:20;15.98;;;13.35;;
59458;SDS011;45269;43.568;22.244;2023-06-24T04:48:45;17.50;;;13.13;;
59458;SDS011;45269;43.568;22.244;2023-06-24T04:51:10;19.45;;;13.48;;
59458;SDS011;45269;43.568;22.244;2023-06-24T04:53:36;19.25;;;14.57;;
59458;SDS011;45269;43.568;22.244;2023-06-24T04:56:01;15.95;;;14.13;;
59458;SDS011;45269;43.568;22.244;2023-06-24T04:58:26;26.02;;;14.35;;
59458;SDS011;45269;43.568;22.244;2023-06-24T05:00:52;23.00;;;13.68;;
59458;SDS011;45269;43.568;22.244;2023-06-24T05:03:18;26.08;;;15.02;;
59458;SDS011;45269;43.568;22.244;2023-06-24T05:05:44;21.50;;;15.05;;
59458;SDS011;45269;43.568;22.244;2023-06-24T05:08:09;23.52;;;15.13;;
59458;SDS011;45269;43.568;22.244;2023-06-24T05:10:34;21.35;;;14.73;;
59458;SDS011;45269;43.568;22.244;2023-06-24T05:13:00;24.42;;;14.45;;
59458;SDS011;45269;43.568;22.244;2023-06-24T05:15:25;22.27;;;14.73;;
59458;SDS011;45269;43.568;22.244;2023-06-24T05:17:50;23.38;;;15.13;;
59458;SDS011;45269;43.568;22.244;2023-06-24T05:20:16;26.42;;;13.30;;
59458;SDS011;45269;43.568;22.244;2023-06-24T05:22:42;30.10;;;13.85;;
59458;SDS011;45269;43.568;22.244;2023-06-24T05:25:08;31.95;;;13.18;;
59458;SDS011;45269;43.568;22.244;2023-06-24T05:27:33;23.08;;;13.05;;
59458;SDS011;45269;43.568;22.244;2023-06-24T05:29:58;24.50;;;13.13;;
59458;SDS011;45269;43.568;22.244;2023-06-24T05:32:24;24.85;;;12.57;;
59458;SDS011;45269;43.568;22.244;2023-06-24T05:34:49;27.58;;;12.75;;
59458;SDS011;45269;43.568;22.244;2023-06-24T05:37:14;31.60;;;13.05;;
59458;SDS011;45269;43.568;22.244;2023-06-24T05:39:40;26.52;;;13.93;;
59458;SDS011;45269;43.568;22.244;2023-06-24T05:42:05;23.67;;;12.25;;
59458;SDS011;45269;43.568;22.244;2023-06-24T05:44:31;24.88;;;13.40;;
59458;SDS011;45269;43.568;22.244;2023-06-24T05:46:56;20.20;;;12.00;;
59458;SDS011;45269;43.568;22.244;2023-06-24T05:49:21;23.73;;;13.30;;
59458;SDS011;45269;43.568;22.244;2023-06-24T05:51:47;26.50;;;13.95;;
59458;SDS011;45269;43.568;22.244;2023-06-24T05:54:12;21.65;;;13.63;;
59458;SDS011;45269;43.568;22.244;2023-06-24T05:56:37;24.33;;;12.77;;
59458;SDS011;45269;43.568;22.244;2023-06-24T05:59:03;21.90;;;12.35;;
59458;SDS011;45269;43.568;22.244;2023-06-24T06:01:28;24.20;;;12.18;;
59458;SDS011;45269;43.568;22.244;2023-06-24T06:03:53;22.38;;;13.02;;
59458;SDS011;45269;43.568;22.244;2023-06-24T06:06:19;24.48;;;13.30;;
59458;SDS011;45269;43.568;22.244;2023-06-24T06:08:44;18.50;;;13.20;;
59458;SDS011;45269;43.568;22.244;2023-06-24T06:11:09;17.42;;;12.50;;
59458;SDS011;45269;43.568;22.244;2023-06-24T06:13:35;27.27;;;14.35;;
59458;SDS011;45269;43.568;22.244;2023-06-24T06:16:00;21.60;;;13.98;;
59458;SDS011;45269;43.568;22.244;2023-06-24T06:18:25;22.25;;;13.50;;
59458;SDS011;45269;43.568;22.244;2023-06-24T06:20:51;23.67;;;13.65;;
59458;SDS011;45269;43.568;22.244;2023-06-24T06:23:16;26.65;;;14.48;;
59458;SDS011;45269;43.568;22.244;2023-06-24T06:25:42;29.30;;;15.48;;
59458;SDS011;45269;43.568;22.244;2023-06-24T06:28:07;22.65;;;13.70;;
59458;SDS011;45269;43.568;22.244;2023-06-24T06:30:32;20.00;;;13.70;;
59458;SDS011;45269;43.568;22.244;2023-06-24T06:32:58;18.35;;;14.13;;
59458;SDS011;45269;43.568;22.244;2023-06-24T06:35:23;22.23;;;14.10;;
59458;SDS011;45269;43.568;22.244;2023-06-24T06:37:48;21.60;;;15.73;;
59458;SDS011;45269;43.568;22.244;2023-06-24T06:40:18;20.27;;;14.43;;
59458;SDS011;45269;43.568;22.244;2023-06-24T06:42:44;19.67;;;14.18;;
59458;SDS011;45269;43.568;22.244;2023-06-24T06:45:09;22.95;;;14.48;;
59458;SDS011;45269;43.568;22.244;2023-06-24T06:47:35;23.15;;;14.90;;
59458;SDS011;45269;43.568;22.244;2023-06-24T06:50:00;24.35;;;14.13;;
59458;SDS011;45269;43.568;22.244;2023-06-24T06:52:25;21.40;;;14.52;;
59458;SDS011;45269;43.568;22.244;2023-06-24T06:54:52;22.02;;;14.43;;
59458;SDS011;45269;43.568;22.244;2023-06-24T06:57:18;21.02;;;14.27;;
59458;SDS011;45269;43.568;22.244;2023-06-24T06:59:43;21.08;;;15.05;;
59458;SDS011;45269;43.568;22.244;2023-06-24T07:02:08;24.85;;;15.23;;
59458;SDS011;45269;43.568;22.244;2023-06-24T07:04:34;22.23;;;16.23;;
59458;SDS011;45269;43.568;22.244;2023-06-24T07:06:59;20.52;;;14.57;;
59458;SDS011;45269;43.568;22.244;2023-06-24T07:09:24;24.23;;;15.10;;
59458;SDS011;45269;43.568;22.244;2023-06-24T07:11:50;22.30;;;15.02;;
59458;SDS011;45269;43.568;22.244;2023-06-24T07:14:15;24.83;;;15.82;;
59458;SDS011;45269;43.568;22.244;2023-06-24T07:16:40;20.70;;;14.82;;
59458;SDS011;45269;43.568;22.244;2023-06-24T07:19:06;22.00;;;15.65;;
59458;SDS011;45269;43.568;22.244;2023-06-24T07:21:31;26.30;;;15.35;;
59458;SDS011;45269;43.568;22.244;2023-06-24T07:23:56;25.95;;;15.93;;
59458;SDS011;45269;43.568;22.244;2023-06-24T07:26:22;20.42;;;15.15;;
59458;SDS011;45269;43.568;22.244;2023-06-24T07:28:47;19.52;;;14.90;;
59458;SDS011;45269;43.568;22.244;2023-06-24T07:31:12;21.13;;;14.60;;
59458;SDS011;45269;43.568;22.244;2023-06-24T07:33:38;23.48;;;15.20;;
59458;SDS011;45269;43.568;22.244;2023-06-24T07:36:03;18.35;;;14.80;;
59458;SDS011;45269;43.568;22.244;2023-06-24T07:38:29;22.85;;;14.75;;
59458;SDS011;45269;43.568;22.244;2023-06-24T07:40:55;28.27;;;14.82;;
59458;SDS011;45269;43.568;22.244;2023-06-24T07:43:20;21.58;;;14.77;;
59458;SDS011;45269;43.568;22.244;2023-06-24T07:45:45;26.80;;;14.60;;
59458;SDS011;45269;43.568;22.244;2023-06-24T07:48:11;25.25;;;15.57;;
59458;SDS011;45269;43.568;22.244;2023-06-24T07:50:37;21.77;;;14.05;;
59458;SDS011;45269;43.568;22.244;2023-06-24T07:53:03;23.73;;;14.25;;
59458;SDS011;45269;43.568;22.244;2023-06-24T07:55:28;21.98;;;15.20;;
59458;SDS011;45269;43.568;22.244;2023-06-24T07:57:53;22.75;;;14.27;;
59458;SDS011;45269;43.568;22.244;2023-06-24T08:00:19;26.35;;;14.73;;
59458;SDS011;45269;43.568;22.244;2023-06-24T08:02:44;22.92;;;14.48;;
59458;SDS011;45269;43.568;22.244;2023-06-24T08:05:09;18.08;;;14.30;;
59458;SDS011;45269;43.568;22.244;2023-06-24T08:07:35;18.27;;;13.90;;
59458;SDS011;45269;43.568;22.244;2023-06-24T08:10:01;24.50;;;15.77;;
59458;SDS011;45269;43.568;22.244;2023-06-24T08:12:26;24.90;;;13.95;;
59458;SDS011;45269;43.568;22.244;2023-06-24T08:14:51;18.85;;;14.65;;
59458;SDS011;45269;43.568;22.244;2023-06-24T08:17:17;20.88;;;15.27;;
59458;SDS011;45269;43.568;22.244;2023-06-24T08:19:42;19.45;;;14.38;;
59458;SDS011;45269;43.568;22.244;2023-06-24T08:22:07;18.95;;;14.57;;
59458;SDS011;45269;43.568;22.244;2023-06-24T08:24:33;23.20;;;14.65;;
59458;SDS011;45269;43.568;22.244;2023-06-24T08:26:58;23.00;;;14.48;;
59458;SDS011;45269;43.568;22.244;2023-06-24T08:29:23;21.00;;;14.80;;
59458;SDS011;45269;43.568;22.244;2023-06-24T08:31:49;22.65;;;14.48;;
59458;SDS011;45269;43.568;22.244;2023-06-24T08:34:14;24.58;;;14.25;;
59458;SDS011;45269;43.568;22.244;2023-06-24T08:36:39;20.88;;;14.63;;
59458;SDS011;45269;43.568;22.244;2023-06-24T08:39:05;20.08;;;14.40;;
59458;SDS011;45269;43.568;22.244;2023-06-24T08:41:30;24.38;;;14.07;;
59458;SDS011;45269;43.568;22.244;2023-06-24T08:43:55;24.88;;;14.90;;
59458;SDS011;45269;43.568;22.244;2023-06-24T08:46:21;17.08;;;13.27;;
59458;SDS011;45269;43.568;22.244;2023-06-24T08:48:48;16.15;;;13.80;;
59458;SDS011;45269;43.568;22.244;2023-06-24T08:51:14;19.38;;;14.25;;
59458;SDS011;45269;43.568;22.244;2023-06-24T08:53:42;22.02;;;14.60;;
59458;SDS011;45269;43.568;22.244;2023-06-24T08:56:08;18.40;;;14.48;;
59458;SDS011;45269;43.568;22.244;2023-06-24T08:58:35;21.27;;;14.75;;
59458;SDS011;45269;43.568;22.244;2023-06-24T09:01:01;23.23;;;14.82;;
59458;SDS011;45269;43.568;22.244;2023-06-24T09:03:27;19.33;;;14.43;;
59458;SDS011;45269;43.568;22.244;2023-06-24T09:05:52;22.35;;;14.85;;
59458;SDS011;45269;43.568;22.244;2023-06-24T09:08:17;21.95;;;15.40;;
59458;SDS011;45269;43.568;22.244;2023-06-24T09:10:43;21.20;;;15.65;;
59458;SDS011;45269;43.568;22.244;2023-06-24T09:13:08;24.17;;;15.98;;
59458;SDS011;45269;43.568;22.244;2023-06-24T09:15:34;23.92;;;17.02;;
59458;SDS011;45269;43.568;22.244;2023-06-24T09:18:00;25.42;;;17.23;;
59458;SDS011;45269;43.568;22.244;2023-06-24T09:20:29;23.15;;;16.45;;
59458;SDS011;45269;43.568;22.244;2023-06-24T09:22:58;26.17;;;17.35;;
59458;SDS011;45269;43.568;22.244;2023-06-24T09:25:24;26.50;;;16.85;;
59458;SDS011;45269;43.568;22.244;2023-06-24T09:27:49;21.17;;;17.05;;
59458;SDS011;45269;43.568;22.244;2023-06-24T09:30:20;22.05;;;16.92;;
59458;SDS011;45269;43.568;22.244;2023-06-24T09:32:46;24.42;;;18.45;;
59458;SDS011;45269;43.568;22.244;2023-06-24T09:35:12;27.73;;;17.30;;
59458;SDS011;45269;43.568;22.244;2023-06-24T09:37:38;25.88;;;16.15;;
59458;SDS011;45269;43.568;22.244;2023-06-24T09:40:03;20.75;;;16.02;;
59458;SDS011;45269;43.568;22.244;2023-06-24T09:42:31;28.15;;;18.25;;
59458;SDS011;45269;43.568;22.244;2023-06-24T09:44:56;22.95;;;16.92;;
59458;SDS011;45269;43.568;22.244;2023-06-24T09:47:21;24.42;;;17.45;;
59458;SDS011;45269;43.568;22.244;2023-06-24T09:49:50;23.95;;;18.90;;
59458;SDS011;45269;43.568;22.244;2023-06-24T09:52:16;27.65;;;19.02;;
59458;SDS011;45269;43.568;22.244;2023-06-24T09:54:42;24.83;;;18.65;;
59458;SDS011;45269;43.568;22.244;2023-06-24T09:57:08;24.58;;;17.50;;
59458;SDS011;45269;43.568;22.244;2023-06-24T09:59:35;22.45;;;17.98;;
59458;SDS011;45269;43.568;22.244;2023-06-24T10:02:02;25.55;;;19.40;;
59458;SDS011;45269;43.568;22.244;2023-06-24T10:04:27;31.15;;;18.90;;
59458;SDS011;45269;43.568;22.244;2023-06-24T10:06:53;27.23;;;19.67;;
59458;SDS011;45269;43.568;22.244;2023-06-24T10:09:18;22.25;;;17.58;;
59458;SDS011;45269;43.568;22.244;2023-06-24T10:11:45;24.00;;;18.92;;
59458;SDS011;45269;43.568;22.244;2023-06-24T10:14:10;25.65;;;18.92;;
59458;SDS011;45269;43.568;22.244;2023-06-24T10:16:36;21.73;;;18.60;;
59458;SDS011;45269;43.568;22.244;2023-06-24T10:19:02;24.30;;;18.40;;
59458;SDS011;45269;43.568;22.244;2023-06-24T10:24:12;26.30;;;18.17;;
59458;SDS011;45269;43.568;22.244;2023-06-24T10:26:39;23.92;;;18.55;;
59458;SDS011;45269;43.568;22.244;2023-06-24T10:44:48;25.35;;;19.20;;
59458;SDS011;45269;43.568;22.244;2023-06-24T10:47:14;23.80;;;18.30;;
59458;SDS011;45269;43.568;22.244;2023-06-24T10:49:39;24.15;;;18.17;;
59458;SDS011;45269;43.568;22.244;2023-06-24T10:52:07;19.50;;;16.73;;
59458;SDS011;45269;43.568;22.244;2023-06-24T10:54:32;22.98;;;19.00;;
59458;SDS011;45269;43.568;22.244;2023-06-24T10:56:58;23.00;;;18.38;;
59458;SDS011;45269;43.568;22.244;2023-06-24T10:59:23;27.10;;;18.55;;
59458;SDS011;45269;43.568;22.244;2023-06-24T11:01:55;21.05;;;18.10;;
59458;SDS011;45269;43.568;22.244;2023-06-24T11:04:20;21.88;;;17.92;;
59458;SDS011;45269;43.568;22.244;2023-06-24T11:07:01;23.75;;;19.02;;
59458;SDS011;45269;43.568;22.244;2023-06-24T11:09:27;24.55;;;19.40;;
59458;SDS011;45269;43.568;22.244;2023-06-24T11:11:53;23.30;;;20.13;;
59458;SDS011;45269;43.568;22.244;2023-06-24T11:14:21;24.92;;;19.98;;
59458;SDS011;45269;43.568;22.244;2023-06-24T11:16:46;30.63;;;21.52;;
59458;SDS011;45269;43.568;22.244;2023-06-24T11:19:12;24.10;;;19.02;;
59458;SDS011;45269;43.568;22.244;2023-06-24T11:21:37;21.45;;;19.05;;
59458;SDS011;45269;43.568;22.244;2023-06-24T11:24:03;25.05;;;19.80;;
59458;SDS011;45269;43.568;22.244;2023-06-24T11:26:28;21.35;;;18.70;;
59458;SDS011;45269;43.568;22.244;2023-06-24T11:28:54;26.52;;;18.70;;
59458;SDS011;45269;43.568;22.244;2023-06-24T11:31:24;23.92;;;18.50;;
59458;SDS011;45269;43.568;22.244;2023-06-24T11:33:50;22.40;;;19.98;;
59458;SDS011;45269;43.568;22.244;2023-06-24T11:36:21;22.58;;;19.23;;
59458;SDS011;45269;43.568;22.244;2023-06-24T11:38:47;24.60;;;19.10;;
59458;SDS011;45269;43.568;22.244;2023-06-24T11:41:12;20.92;;;18.65;;
59458;SDS011;45269;43.568;22.244;2023-06-24T11:43:43;20.67;;;18.45;;
59458;SDS011;45269;43.568;22.244;2023-06-24T11:46:08;25.17;;;19.13;;
59458;SDS011;45269;43.568;22.244;2023-06-24T11:48:38;23.55;;;18.15;;
59458;SDS011;45269;43.568;22.244;2023-06-24T11:51:11;21.98;;;18.60;;
59458;SDS011;45269;43.568;22.244;2023-06-24T11:53:41;20.88;;;16.63;;
59458;SDS011;45269;43.568;22.244;2023-06-24T11:56:13;21.60;;;17.77;;
59458;SDS011;45269;43.568;22.244;2023-06-24T11:58:38;19.65;;;17.50;;
59458;SDS011;45269;43.568;22.244;2023-06-24T12:01:07;20.40;;;17.80;;
59458;SDS011;45269;43.568;22.244;2023-06-24T12:03:33;20.27;;;17.42;;
59458;SDS011;45269;43.568;22.244;2023-06-24T12:05:59;19.55;;;17.63;;
59458;SDS011;45269;43.568;22.244;2023-06-24T12:08:24;23.17;;;16.73;;
59458;SDS011;45269;43.568;22.244;2023-06-24T12:10:49;21.15;;;17.67;;
59458;SDS011;45269;43.568;22.244;2023-06-24T12:13:15;21.98;;;17.70;;
59458;SDS011;45269;43.568;22.244;2023-06-24T12:15:40;19.95;;;17.05;;
59458;SDS011;45269;43.568;22.244;2023-06-24T12:18:06;21.35;;;17.10;;
59458;SDS011;45269;43.568;22.244;2023-06-24T12:20:31;24.00;;;18.98;;
59458;SDS011;45269;43.568;22.244;2023-06-24T12:22:57;22.92;;;16.95;;
59458;SDS011;45269;43.568;22.244;2023-06-24T12:25:22;21.85;;;17.52;;
59458;SDS011;45269;43.568;22.244;2023-06-24T12:27:48;19.65;;;16.25;;
59458;SDS011;45269;43.568;22.244;2023-06-24T12:30:13;21.38;;;17.52;;
59458;SDS011;45269;43.568;22.244;2023-06-24T12:32:39;23.60;;;18.08;;
59458;SDS011;45269;43.568;22.244;2023-06-24T12:35:05;20.45;;;16.55;;
59458;SDS011;45269;43.568;22.244;2023-06-24T12:37:31;19.40;;;17.30;;
59458;SDS011;45269;43.568;22.244;2023-06-24T12:39:57;20.20;;;17.77;;
59458;SDS011;45269;43.568;22.244;2023-06-24T12:42:22;20.25;;;17.02;;
59458;SDS011;45269;43.568;22.244;2023-06-24T12:44:48;19.33;;;16.88;;
59458;SDS011;45269;43.568;22.244;2023-06-24T12:47:13;17.75;;;15.90;;
59458;SDS011;45269;43.568;22.244;2023-06-24T12:49:38;18.15;;;15.77;;
59458;SDS011;45269;43.568;22.244;2023-06-24T12:52:04;20.40;;;16.45;;
59458;SDS011;45269;43.568;22.244;2023-06-24T12:54:29;21.55;;;16.15;;
59458;SDS011;45269;43.568;22.244;2023-06-24T12:56:54;20.48;;;17.33;;
59458;SDS011;45269;43.568;22.244;2023-06-24T12:59:20;17.63;;;15.35;;
59458;SDS011;45269;43.568;22.244;2023-06-24T13:01:45;17.50;;;15.20;;
59458;SDS011;45269;43.568;22.244;2023-06-24T13:04:11;20.45;;;15.55;;
59458;SDS011;45269;43.568;22.244;2023-06-24T13:06:36;19.58;;;15.63;;
59458;SDS011;45269;43.568;22.244;2023-06-24T13:09:02;15.85;;;14.27;;
59458;SDS011;45269;43.568;22.244;2023-06-24T13:11:27;19.40;;;16.23;;
59458;SDS011;45269;43.568;22.244;2023-06-24T13:13:53;17.73;;;15.82;;
59458;SDS011;45269;43.568;22.244;2023-06-24T13:16:18;16.90;;;14.80;;
59458;SDS011;45269;43.568;22.244;2023-06-24T13:18:43;18.15;;;16.25;;
59458;SDS011;45269;43.568;22.244;2023-06-24T13:21:09;18.23;;;15.60;;
59458;SDS011;45269;43.568;22.244;2023-06-24T13:23:35;16.45;;;14.93;;
59458;SDS011;45269;43.568;22.244;2023-06-24T13:26:02;17.88;;;16.02;;
59458;SDS011;45269;43.568;22.244;2023-06-24T13:28:28;18.40;;;16.20;;
59458;SDS011;45269;43.568;22.244;2023-06-24T13:30:53;16.42;;;14.68;;
59458;SDS011;45269;43.568;22.244;2023-06-24T13:33:19;18.90;;;15.82;;
59458;SDS011;45269;43.568;22.244;2023-06-24T13:35:45;17.30;;;15.07;;
59458;SDS011;45269;43.568;22.244;2023-06-24T13:38:10;17.00;;;15.15;;
59458;SDS011;45269;43.568;22.244;2023-06-24T13:40:37;16.88;;;15.23;;
59458;SDS011;45269;43.568;22.244;2023-06-24T13:43:02;17.88;;;16.08;;
59458;SDS011;45269;43.568;22.244;2023-06-24T13:45:28;29.60;;;26.55;;
59458;SDS011;45269;43.568;22.244;2023-06-24T13:47:53;32.53;;;25.40;;
59458;SDS011;45269;43.568;22.244;2023-06-24T13:50:20;31.60;;;25.30;;
59458;SDS011;45269;43.568;22.244;2023-06-24T13:52:45;32.38;;;26.13;;
59458;SDS011;45269;43.568;22.244;2023-06-24T13:55:10;33.55;;;28.80;;
59458;SDS011;45269;43.568;22.244;2023-06-24T13:57:36;39.08;;;32.75;;
59458;SDS011;45269;43.568;22.244;2023-06-24T14:00:01;36.15;;;30.75;;
59458;SDS011;45269;43.568;22.244;2023-06-24T14:02:27;44.90;;;34.05;;
59458;SDS011;45269;43.568;22.244;2023-06-24T14:04:52;40.55;;;32.85;;
59458;SDS011;45269;43.568;22.244;2023-06-24T14:07:17;38.55;;;32.88;;
59458;SDS011;45269;43.568;22.244;2023-06-24T14:09:43;40.95;;;35.80;;
59458;SDS011;45269;43.568;22.244;2023-06-24T14:12:08;39.38;;;34.53;;
59458;SDS011;45269;43.568;22.244;2023-06-24T14:14:34;38.63;;;34.80;;
59458;SDS011;45269;43.568;22.244;2023-06-24T14:17:00;45.33;;;40.05;;
59458;SDS011;45269;43.568;22.244;2023-06-24T14:19:25;43.97;;;39.20;;
59458;SDS011;45269;43.568;22.244;2023-06-24T14:21:50;44.47;;;38.80;;
59458;SDS011;45269;43.568;22.244;2023-06-24T14:24:16;43.03;;;38.30;;
59458;SDS011;45269;43.568;22.244;2023-06-24T14:26:41;42.17;;;37.70;;
59458;SDS011;45269;43.568;22.244;2023-06-24T14:29:06;45.65;;;39.72;;
59458;SDS011;45269;43.568;22.244;2023-06-24T14:31:32;46.13;;;40.70;;
59458;SDS011;45269;43.568;22.244;2023-06-24T14:33:57;52.90;;;41.50;;